Time;durP1;ratioP1;P1;durP2;ratioP2;P2;SDS_P1;SDS_P2;PMS_P1;PMS_P2;Temp;Humidity;BMP_temperature;BMP_pressure;BME280_temperature;BME280_humidity;BME280_pressure;Samples;Min_cycle;Max_cycle;Signal;HPM_P1;HPM_P2
2023/01/10 00:00:30;;;;;;;391.73;149.70;;;;;;;9.24;87.71;99561.16;5042648;28;20083;-61
2023/01/10 00:03:16;;;;;;;370.73;145.52;;;;;;;9.09;87.81;99565.41;5045413;28;20134;-61
2023/01/10 00:06:06;;;;;;;398.27;148.30;;;;;;;8.99;88.02;99569.00;5036889;28;20532;-60
2023/01/10 00:08:56;;;;;;;411.92;155.50;;;;;;;8.98;88.17;99579.75;5039190;28;20465;-59
2023/01/10 00:14:45;;;;;;;392.60;141.88;;;;;;;9.00;88.59;99586.50;5047119;28;20481;-59
2023/01/10 00:17:27;;;;;;;372.25;151.65;;;;;;;9.24;87.64;99579.66;5036537;28;20527;-59
2023/01/10 00:20:17;;;;;;;380.92;147.07;;;;;;;9.19;87.94;99597.81;5049899;28;20045;-62
2023/01/10 00:22:59;;;;;;;399.08;148.88;;;;;;;9.13;88.07;99601.06;5055926;28;20044;-60
2023/01/10 00:25:48;;;;;;;391.95;148.85;;;;;;;9.03;88.20;99595.91;5059198;28;20121;-60
2023/01/10 00:28:33;;;;;;;437.25;152.00;;;;;;;8.97;88.78;99596.59;5045558;28;20048;-60
2023/01/10 00:31:23;;;;;;;396.05;151.05;;;;;;;9.04;88.12;99602.88;5052542;28;20048;-62
2023/01/10 00:34:06;;;;;;;412.90;152.63;;;;;;;9.01;88.52;99606.66;5062570;28;20155;-60
2023/01/10 00:36:55;;;;;;;448.77;155.95;;;;;;;9.05;88.48;99607.16;5050699;28;20805;-59
2023/01/10 00:39:44;;;;;;;402.48;149.25;;;;;;;9.12;88.58;99623.19;5044925;28;20083;-62
2023/01/10 00:45:34;;;;;;;440.48;158.95;;;;;;;8.98;88.70;99611.44;5047642;28;20045;-60
2023/01/10 00:48:23;;;;;;;399.33;156.02;;;;;;;8.97;88.75;99604.50;5041794;28;20049;-60
2023/01/10 00:51:05;;;;;;;391.40;149.50;;;;;;;9.16;88.58;99619.28;5053824;28;20037;-61
2023/01/10 00:54:00;;;;;;;396.63;150.27;;;;;;;9.20;88.16;99624.06;5039934;28;20036;-62
2023/01/10 00:56:35;;;;;;;439.92;151.55;;;;;;;9.05;88.20;99630.13;5049264;28;20059;-60
2023/01/10 00:59:24;;;;;;;434.40;153.52;;;;;;;9.12;88.69;99639.06;5041654;28;20127;-60
2023/01/10 01:02:13;;;;;;;424.63;151.48;;;;;;;9.01;88.26;99626.97;5055292;28;20048;-62
2023/01/10 01:05:11;;;;;;;467.30;154.38;;;;;;;8.96;88.61;99621.34;5053986;28;20126;-61
2023/01/10 01:08:00;;;;;;;406.08;150.40;;;;;;;9.01;88.71;99622.53;5052710;28;20101;-62
2023/01/10 01:10:42;;;;;;;379.60;150.77;;;;;;;9.26;88.71;99618.13;5067671;28;20048;-61
2023/01/10 01:13:31;;;;;;;385.17;147.32;;;;;;;9.03;88.56;99622.34;5063690;28;20123;-61
2023/01/10 01:16:14;;;;;;;359.98;144.15;;;;;;;9.15;88.47;99633.47;5047626;28;20056;-62
2023/01/10 01:19:03;;;;;;;373.42;140.45;;;;;;;9.04;88.64;99624.00;5047850;28;20049;-62
2023/01/10 01:21:45;;;;;;;399.60;142.90;;;;;;;8.90;88.37;99620.16;5050817;28;20044;-62
2023/01/10 01:24:34;;;;;;;401.17;141.13;;;;;;;8.84;88.35;99618.16;5057567;28;20107;-61
2023/01/10 01:27:16;;;;;;;346.65;139.27;;;;;;;9.01;88.64;99617.25;5047202;28;20140;-61
2023/01/10 01:30:07;;;;;;;356.23;137.98;;;;;;;8.92;88.57;99618.19;5053691;28;20049;-61
2023/01/10 01:32:55;;;;;;;341.00;137.02;;;;;;;8.96;88.27;99623.97;5065161;28;20438;-63
2023/01/10 01:35:40;;;;;;;416.25;141.88;;;;;;;8.89;88.67;99623.81;5047822;28;20052;-62
2023/01/10 01:38:29;;;;;;;400.67;140.18;;;;;;;8.82;88.79;99627.22;5032207;28;20143;-62
2023/01/10 01:44:24;;;;;;;384.70;143.68;;;;;;;9.00;88.06;99618.22;5053875;28;20147;-62
2023/01/10 01:47:13;;;;;;;394.48;145.35;;;;;;;9.05;88.38;99622.19;5067138;28;20052;-62
2023/01/10 01:50:02;;;;;;;384.10;144.55;;;;;;;8.97;87.98;99623.84;5013831;28;20625;-61
2023/01/10 01:52:46;;;;;;;409.02;147.80;;;;;;;9.07;88.03;99636.09;5059481;28;20041;-61
2023/01/10 01:55:39;;;;;;;430.80;146.93;;;;;;;9.01;88.09;99641.00;5054617;28;20059;-60
2023/01/10 01:58:29;;;;;;;438.33;155.98;;;;;;;9.03;88.66;99633.75;5066102;28;20044;-61
2023/01/10 02:01:20;;;;;;;408.90;149.90;;;;;;;9.10;88.17;99631.31;5048491;28;20792;-62
2023/01/10 02:04:21;;;;;;;402.63;149.73;;;;;;;9.21;89.03;99635.44;5065862;28;20048;-61
2023/01/10 02:07:10;;;;;;;396.20;153.18;;;;;;;9.22;88.11;99645.03;5063918;28;20048;-61
2023/01/10 02:09:57;;;;;;;418.65;150.43;;;;;;;9.01;88.11;99651.59;5058379;28;20149;-61
2023/01/10 02:12:47;;;;;;;427.08;155.93;;;;;;;9.03;88.29;99646.13;5048813;28;20106;-60
2023/01/10 02:15:36;;;;;;;400.83;155.27;;;;;;;9.25;88.05;99648.19;5034099;28;20040;-61
2023/01/10 02:18:20;;;;;;;430.35;156.23;;;;;;;9.15;88.32;99654.59;5064975;28;20080;-61
2023/01/10 02:21:32;;;;;;;413.90;152.45;;;;;;;9.24;87.77;99654.47;5045522;28;20037;-60
2023/01/10 02:24:42;;;;;;;409.00;153.82;;;;;;;9.31;87.79;99662.56;5045624;28;20048;-60
2023/01/10 02:28:13;;;;;;;416.40;151.68;;;;;;;9.26;87.72;99655.13;5053133;28;20053;-62
2023/01/10 02:31:20;;;;;;;398.15;152.90;;;;;;;9.20;88.23;99641.75;5044972;28;20126;-61
2023/01/10 02:34:16;;;;;;;416.77;155.45;;;;;;;9.29;87.44;99646.88;5050339;28;20037;-61
2023/01/10 02:37:23;;;;;;;396.83;150.02;;;;;;;9.32;87.61;99645.75;5063907;28;20050;-61
2023/01/10 02:40:50;;;;;;;418.45;153.20;;;;;;;9.26;87.43;99662.22;5050113;28;20052;-61
2023/01/10 02:43:48;;;;;;;392.38;146.23;;;;;;;9.15;87.52;99663.38;5024063;28;20152;-63
2023/01/10 02:46:39;;;;;;;379.33;146.68;;;;;;;9.44;87.80;99663.78;5048647;28;20136;-60
2023/01/10 02:49:21;;;;;;;389.38;150.35;;;;;;;9.62;87.49;99655.72;5052715;28;20041;-62
2023/01/10 02:52:17;;;;;;;393.77;149.57;;;;;;;9.40;86.55;99659.81;5054074;28;20053;-61
2023/01/10 02:55:05;;;;;;;377.73;148.20;;;;;;;9.34;87.14;99668.38;5051459;28;20045;-61
2023/01/10 02:58:18;;;;;;;387.48;149.25;;;;;;;9.24;87.32;99661.56;5059333;28;20056;-61
2023/01/10 03:01:38;;;;;;;397.08;148.20;;;;;;;9.30;88.15;99671.50;5065612;28;20056;-60
2023/01/10 03:04:57;;;;;;;399.48;146.90;;;;;;;9.29;87.55;99683.88;5028713;28;20073;-62
2023/01/10 03:07:58;;;;;;;375.70;145.85;;;;;;;9.73;87.64;99688.97;5057910;28;20102;-61
2023/01/10 03:11:01;;;;;;;388.77;146.07;;;;;;;9.58;86.53;99690.56;5061662;28;20559;-60
2023/01/10 03:14:03;;;;;;;417.67;147.90;;;;;;;9.48;87.26;99702.13;5046024;28;20139;-61
2023/01/10 03:17:01;;;;;;;391.77;148.25;;;;;;;9.46;86.91;99700.63;5049883;28;20072;-61
2023/01/10 03:19:51;;;;;;;426.95;154.18;;;;;;;9.50;87.08;99704.63;5045979;28;20110;-61
2023/01/10 03:22:42;;;;;;;413.08;150.07;;;;;;;9.48;87.97;99709.22;5059880;28;20045;-61
2023/01/10 03:25:32;;;;;;;390.00;151.65;;;;;;;9.48;87.64;99714.50;5055147;28;20060;-61
2023/01/10 03:28:51;;;;;;;403.20;149.13;;;;;;;9.43;87.20;99708.88;5058024;28;20103;-61
2023/01/10 03:31:44;;;;;;;377.33;144.82;;;;;;;9.61;87.42;99714.03;5042049;28;20389;-62
2023/01/10 03:34:40;;;;;;;406.67;151.00;;;;;;;9.65;86.53;99724.13;5056954;28;20040;-62
2023/01/10 03:37:33;;;;;;;421.73;152.68;;;;;;;9.55;86.76;99726.13;5061431;28;20072;-60
2023/01/10 03:40:40;;;;;;;393.02;151.18;;;;;;;9.46;87.38;99725.28;5058366;28;20738;-62
2023/01/10 03:47:13;;;;;;;405.27;151.40;;;;;;;9.49;87.49;99710.88;5056683;28;20735;-61
2023/01/10 03:50:29;;;;;;;414.40;153.70;;;;;;;9.51;87.57;99713.38;5057064;28;20056;-61
2023/01/10 03:53:25;;;;;;;415.35;149.95;;;;;;;9.56;87.49;99717.16;5057791;28;20065;-61
2023/01/10 03:56:14;;;;;;;420.48;148.85;;;;;;;9.61;87.33;99719.34;5057730;28;20045;-60
2023/01/10 03:59:04;;;;;;;417.52;151.85;;;;;;;9.58;87.51;99725.78;5052307;28;20044;-60
2023/01/10 04:01:53;;;;;;;430.02;153.70;;;;;;;9.59;87.64;99735.38;5051164;28;20044;-62
2023/01/10 04:04:36;;;;;;;435.73;157.40;;;;;;;9.82;88.43;99732.97;5056978;28;20289;-60
2023/01/10 04:07:33;;;;;;;418.90;156.70;;;;;;;9.98;87.09;99737.44;5058093;28;20056;-60
2023/01/10 04:10:09;;;;;;;432.45;155.85;;;;;;;10.06;86.55;99751.53;5058972;28;20045;-60
2023/01/10 04:13:08;;;;;;;430.17;155.05;;;;;;;9.97;86.59;99746.38;5057461;28;20147;-61
2023/01/10 04:15:43;;;;;;;402.40;150.77;;;;;;;9.96;87.16;99748.19;5054713;28;20053;-61
2023/01/10 04:18:32;;;;;;;414.10;156.32;;;;;;;10.20;86.70;99756.19;5051728;28;20103;-60
2023/01/10 04:21:14;;;;;;;428.83;159.55;;;;;;;10.10;86.30;99757.31;5061797;28;20040;-60
2023/01/10 04:24:03;;;;;;;433.60;155.57;;;;;;;9.80;86.71;99764.88;5057599;28;20061;-60
2023/01/10 04:26:45;;;;;;;412.40;148.25;;;;;;;9.85;87.01;99765.22;5053546;28;20070;-62
2023/01/10 04:29:34;;;;;;;420.92;152.77;;;;;;;9.77;87.45;99782.88;5056241;28;20110;-61
2023/01/10 04:32:16;;;;;;;395.27;154.60;;;;;;;9.88;87.00;99782.56;5032234;28;20312;-69
2023/01/10 04:35:05;;;;;;;411.77;155.60;;;;;;;10.14;86.91;99787.75;5044046;28;20044;-62
2023/01/10 04:37:49;;;;;;;423.38;158.38;;;;;;;10.19;86.17;99791.59;5073167;28;20040;-61
2023/01/10 04:40:44;;;;;;;436.33;159.10;;;;;;;10.15;86.04;99792.06;5051986;28;20068;-61
2023/01/10 04:43:33;;;;;;;432.67;164.13;;;;;;;10.40;85.91;99769.94;5040264;28;20052;-61
2023/01/10 04:46:15;;;;;;;425.52;161.07;;;;;;;10.20;85.83;99769.44;5053941;28;20045;-62
2023/01/10 04:49:04;;;;;;;426.80;158.23;;;;;;;10.24;86.27;99773.41;5047688;28;20055;-62
2023/01/10 04:51:47;;;;;;;426.77;159.00;;;;;;;10.61;85.50;99774.75;5046960;28;20049;-61
2023/01/10 04:54:43;;;;;;;400.58;153.82;;;;;;;10.50;85.78;99770.59;5048389;28;20156;-61
2023/01/10 04:57:32;;;;;;;400.17;153.90;;;;;;;10.54;85.03;99776.41;5031194;28;20061;-62
2023/01/10 05:00:15;;;;;;;426.77;157.15;;;;;;;10.59;84.85;99774.91;5037738;28;20136;-60
2023/01/10 05:03:04;;;;;;;407.73;151.50;;;;;;;10.73;84.37;99776.91;5040802;28;20132;-62
2023/01/10 05:05:53;;;;;;;396.80;152.10;;;;;;;10.98;84.31;99780.31;5034628;28;20540;-64
2023/01/10 05:08:35;;;;;;;407.67;155.15;;;;;;;10.89;83.86;99770.72;5034634;28;20065;-62
2023/01/10 05:11:24;;;;;;;411.45;154.25;;;;;;;10.81;83.58;99768.94;5036280;28;20053;-62
2023/01/10 05:14:06;;;;;;;393.15;154.18;;;;;;;10.69;84.32;99772.09;5037568;28;20053;-61
2023/01/10 05:16:55;;;;;;;409.13;149.05;;;;;;;10.77;85.19;99769.44;5038010;28;20040;-63
2023/01/10 05:19:37;;;;;;;403.70;149.93;;;;;;;10.73;83.68;99774.25;5037677;28;20112;-63
2023/01/10 05:22:26;;;;;;;410.48;153.45;;;;;;;10.97;84.21;99769.91;5036023;28;20068;-62
2023/01/10 05:25:09;;;;;;;404.55;149.80;;;;;;;10.99;83.89;99771.38;5038886;28;20547;-66
2023/01/10 05:27:58;;;;;;;387.05;154.57;;;;;;;10.88;84.22;99771.75;5032818;28;20126;-62
2023/01/10 05:30:42;;;;;;;399.83;149.30;;;;;;;10.67;84.69;99766.13;5038760;28;20571;-61
2023/01/10 05:33:31;;;;;;;385.67;146.23;;;;;;;10.75;84.60;99748.41;5040663;28;20118;-63
2023/01/10 05:36:26;;;;;;;390.75;149.77;;;;;;;10.87;84.66;99734.81;5035487;28;20092;-62
2023/01/10 05:39:03;;;;;;;379.92;146.98;;;;;;;10.98;83.79;99748.53;5034953;28;20726;-60
2023/01/10 05:41:59;;;;;;;410.67;152.38;;;;;;;10.88;84.07;99747.91;5035045;28;20819;-60
2023/01/10 05:44:34;;;;;;;378.63;150.20;;;;;;;11.06;83.55;99745.03;5017651;28;20049;-62
2023/01/10 05:47:29;;;;;;;405.38;152.68;;;;;;;11.14;83.36;99755.63;5035642;28;20061;-60
2023/01/10 05:50:05;;;;;;;411.45;157.25;;;;;;;11.23;82.83;99754.59;5035218;28;20049;-62
2023/01/10 05:52:54;;;;;;;407.27;154.98;;;;;;;11.18;82.83;99739.19;5035155;28;20129;-62
2023/01/10 05:55:50;;;;;;;387.08;151.68;;;;;;;11.31;82.25;99743.13;5056061;28;20460;-62
2023/01/10 05:58:27;;;;;;;379.42;152.30;;;;;;;11.44;82.47;99738.94;5058396;28;20082;-63
2023/01/10 06:01:16;;;;;;;380.73;150.23;;;;;;;11.57;81.68;99733.91;5065037;28;20044;-62
2023/01/10 06:04:05;;;;;;;390.75;150.32;;;;;;;11.75;81.51;99728.34;5061620;28;20151;-62
2023/01/10 06:06:54;;;;;;;387.75;147.13;;;;;;;11.53;80.74;99737.06;5060479;28;20033;-64
2023/01/10 06:09:45;;;;;;;377.92;151.15;;;;;;;11.81;81.31;99743.59;5068755;28;20047;-64
2023/01/10 06:12:27;;;;;;;374.98;148.07;;;;;;;11.81;80.63;99734.81;5059689;28;20082;-63
2023/01/10 06:15:17;;;;;;;367.95;154.82;;;;;;;12.07;80.55;99729.97;5052220;28;20041;-62
2023/01/10 06:18:13;;;;;;;374.40;145.77;;;;;;;12.18;79.79;99737.53;5059434;28;20468;-63
2023/01/10 06:20:49;;;;;;;355.38;144.23;;;;;;;12.26;79.28;99726.84;5054116;28;20550;-61
2023/01/10 06:27:16;;;;;;;392.33;153.98;;;;;;;12.26;78.47;99718.06;4898427;23;20155;-62
2023/01/10 06:30:06;;;;;;;379.25;151.68;;;;;;;12.50;79.05;99713.34;4870483;29;20817;-63
2023/01/10 06:32:48;;;;;;;380.55;146.98;;;;;;;12.22;79.05;99712.25;4876234;29;20436;-61
2023/01/10 06:35:45;;;;;;;382.00;151.20;;;;;;;12.40;78.95;99703.97;4868722;29;20060;-62
2023/01/10 06:38:21;;;;;;;397.30;151.98;;;;;;;12.61;78.16;99696.97;4867797;29;20068;-61
2023/01/10 06:41:16;;;;;;;386.30;156.07;;;;;;;12.53;78.21;99693.56;4862212;29;20537;-64
2023/01/10 06:43:52;;;;;;;364.73;150.65;;;;;;;12.70;78.13;99696.91;4865472;29;20108;-68
2023/01/10 06:46:40;;;;;;;380.10;150.00;;;;;;;12.77;77.64;99688.00;4869602;29;20049;-66
2023/01/10 06:49:29;;;;;;;370.45;148.70;;;;;;;12.74;77.55;99683.06;4871748;29;20063;-67
2023/01/10 06:52:11;;;;;;;352.05;147.02;;;;;;;12.83;76.95;99686.47;4862329;29;20132;-63
2023/01/10 06:55:00;;;;;;;343.58;145.30;;;;;;;12.88;76.43;99679.56;4871624;29;20085;-65
2023/01/10 06:57:42;;;;;;;350.05;147.30;;;;;;;13.26;75.21;99680.34;4862984;29;20063;-64
2023/01/10 07:00:33;;;;;;;354.42;145.35;;;;;;;13.50;74.97;99677.34;4868619;29;20052;-70
2023/01/10 07:03:15;;;;;;;330.83;140.15;;;;;;;13.43;74.84;99676.44;4871420;29;20045;-67
2023/01/10 07:06:10;;;;;;;325.40;143.18;;;;;;;13.40;73.84;99666.19;4863896;29;20057;-70
2023/01/10 07:08:55;;;;;;;326.27;143.38;;;;;;;13.57;74.80;99647.31;4832462;29;20045;-67
2023/01/10 07:11:44;;;;;;;344.52;145.70;;;;;;;13.72;74.00;99648.09;4867754;29;20048;-68
2023/01/10 07:14:26;;;;;;;350.80;150.63;;;;;;;13.89;73.20;99639.69;4868628;29;20049;-68
2023/01/10 07:17:15;;;;;;;332.85;144.70;;;;;;;14.04;71.73;99641.44;4869392;29;20128;-69
2023/01/10 07:19:57;;;;;;;320.98;143.23;;;;;;;14.30;72.04;99631.81;4867446;29;20060;-75
2023/01/10 07:22:46;;;;;;;310.00;143.25;;;;;;;14.38;70.97;99628.22;4852708;29;20780;-65
2023/01/10 07:25:29;;;;;;;305.73;138.43;;;;;;;14.23;70.13;99616.81;4868568;29;20083;-67
2023/01/10 07:28:18;;;;;;;311.13;138.93;;;;;;;14.59;70.60;99616.69;4845719;29;20054;-66
2023/01/10 07:31:07;;;;;;;298.40;133.73;;;;;;;14.66;68.98;99612.19;4869989;29;20144;-66
2023/01/10 07:33:59;;;;;;;283.00;129.20;;;;;;;14.97;67.85;99601.91;4871635;29;20037;-68
2023/01/10 07:36:48;;;;;;;282.85;129.05;;;;;;;14.96;68.83;99594.91;4862278;29;20080;-68
2023/01/10 07:39:37;;;;;;;294.63;131.90;;;;;;;14.69;69.14;99595.81;4868586;29;20049;-63
2023/01/10 07:42:19;;;;;;;298.52;134.95;;;;;;;14.87;68.93;99584.63;4869825;29;20109;-62
2023/01/10 07:45:08;;;;;;;272.33;128.88;;;;;;;15.20;67.00;99580.22;4870881;29;20068;-63
2023/01/10 07:47:50;;;;;;;283.52;130.70;;;;;;;15.40;66.70;99575.75;4865020;29;20569;-62
2023/01/10 07:50:41;;;;;;;272.88;125.53;;;;;;;15.54;65.93;99563.28;4880530;29;20056;-60
2023/01/10 07:53:24;;;;;;;267.58;125.55;;;;;;;15.67;66.21;99569.47;4850888;29;20707;-60
2023/01/10 07:56:13;;;;;;;271.63;126.68;;;;;;;15.77;66.04;99558.38;4873307;29;20044;-60
2023/01/10 07:58:55;;;;;;;283.10;126.55;;;;;;;15.89;65.29;99546.06;4864119;29;20049;-60
2023/01/10 08:01:44;;;;;;;286.02;132.00;;;;;;;16.01;65.00;99536.41;4859617;29;20103;-61
2023/01/10 08:04:33;;;;;;;278.33;129.00;;;;;;;15.89;65.08;99537.25;4869733;29;20049;-61
2023/01/10 08:07:15;;;;;;;273.98;124.97;;;;;;;16.15;64.16;99521.19;4867432;29;20441;-62
2023/01/10 08:10:05;;;;;;;259.08;125.43;;;;;;;16.40;63.12;99524.00;4879010;29;20112;-61
2023/01/10 08:12:47;;;;;;;272.95;126.18;;;;;;;16.09;64.65;99528.19;4873444;29;20108;-61
2023/01/10 08:15:37;;;;;;;279.92;127.68;;;;;;;15.77;64.36;99528.19;4885846;29;20060;-61
2023/01/10 08:18:19;;;;;;;255.05;125.57;;;;;;;16.27;64.13;99516.84;4882911;29;20061;-61
2023/01/10 08:21:09;;;;;;;264.05;124.63;;;;;;;16.28;63.26;99515.00;4891926;29;20060;-61
2023/01/10 08:23:59;;;;;;;253.43;122.95;;;;;;;16.47;61.85;99503.41;4887228;29;20091;-61
2023/01/10 08:26:41;;;;;;;259.33;123.68;;;;;;;16.50;61.78;99503.00;4878796;29;20049;-62
2023/01/10 08:29:30;;;;;;;263.60;125.50;;;;;;;16.75;61.22;99501.28;4873846;29;20052;-60
2023/01/10 08:32:12;;;;;;;251.80;121.60;;;;;;;16.92;61.49;99496.25;4865603;29;20709;-61
2023/01/10 08:35:01;;;;;;;265.83;124.07;;;;;;;16.73;60.47;99483.81;4873651;29;20049;-61
2023/01/10 08:37:43;;;;;;;265.63;123.93;;;;;;;16.51;61.52;99488.56;4869867;29;20055;-62
2023/01/10 08:40:33;;;;;;;252.80;120.97;;;;;;;17.01;60.52;99503.81;4872630;29;20056;-63
2023/01/10 08:43:16;;;;;;;253.00;122.28;;;;;;;17.14;60.40;99494.06;4873795;29;20572;-62
2023/01/10 08:46:05;;;;;;;255.68;122.93;;;;;;;16.91;59.94;99483.91;4869239;29;20045;-63
2023/01/10 08:48:54;;;;;;;261.65;122.68;;;;;;;16.95;60.24;99477.13;4865090;29;20552;-63
2023/01/10 08:51:44;;;;;;;264.55;123.90;;;;;;;16.83;61.87;99470.78;4848726;29;20093;-60
2023/01/10 08:54:26;;;;;;;277.67;127.50;;;;;;;16.95;60.91;99458.38;4866017;29;20058;-62
2023/01/10 08:57:15;;;;;;;266.35;127.57;;;;;;;17.08;60.77;99452.94;4862706;29;20056;-61
2023/01/10 08:59:57;;;;;;;262.60;126.05;;;;;;;16.92;60.18;99445.41;4865390;29;20144;-63
2023/01/10 09:02:47;;;;;;;273.85;126.10;;;;;;;16.93;60.48;99437.19;4864172;29;20485;-61
2023/01/10 09:05:29;;;;;;;273.27;127.75;;;;;;;16.98;61.39;99432.00;4867491;29;20049;-61
2023/01/10 09:08:18;;;;;;;269.90;129.70;;;;;;;16.92;60.90;99434.72;4873340;29;20060;-61
2023/01/10 09:11:01;;;;;;;274.92;132.85;;;;;;;16.91;60.96;99438.41;4873517;29;20123;-62
2023/01/10 09:13:50;;;;;;;283.02;132.80;;;;;;;16.96;61.09;99447.44;4871563;29;20053;-62
2023/01/10 09:16:32;;;;;;;281.02;134.45;;;;;;;16.81;61.75;99436.22;4874617;29;20049;-61
2023/01/10 09:19:21;;;;;;;284.77;133.45;;;;;;;17.06;60.80;99436.28;4871138;29;20057;-61
2023/01/10 09:22:16;;;;;;;296.13;138.88;;;;;;;16.81;61.00;99430.88;4859783;29;20058;-61
2023/01/10 09:24:52;;;;;;;307.30;139.45;;;;;;;16.88;61.60;99428.97;4867591;29;20055;-61
2023/01/10 09:27:48;;;;;;;321.92;144.23;;;;;;;16.86;61.22;99432.91;4867238;29;20042;-62
2023/01/10 09:30:24;;;;;;;308.88;144.15;;;;;;;16.92;62.03;99432.03;4865224;29;20053;-62
2023/01/10 09:33:20;;;;;;;335.58;148.27;;;;;;;17.01;61.53;99423.53;4865662;29;20052;-61
2023/01/10 09:35:58;;;;;;;334.73;148.25;;;;;;;17.10;61.22;99417.91;4870477;29;20045;-62
2023/01/10 09:38:55;;;;;;;340.90;151.10;;;;;;;17.01;61.49;99415.50;4866294;29;20136;-62
2023/01/10 09:41:54;;;;;;;335.42;148.38;;;;;;;17.14;61.07;99411.91;4869860;29;20077;-61
2023/01/10 09:44:45;;;;;;;335.13;150.35;;;;;;;16.94;61.17;99409.41;4876143;29;20144;-62
2023/01/10 09:47:53;;;;;;;333.10;150.95;;;;;;;16.80;61.76;99404.34;4863310;29;20551;-61
2023/01/10 09:51:16;;;;;;;352.45;156.13;;;;;;;17.17;60.65;99397.28;4867705;29;20049;-61
2023/01/10 09:53:58;;;;;;;358.02;156.95;;;;;;;17.12;60.45;99391.78;4868507;29;20710;-62
2023/01/10 09:56:59;;;;;;;395.63;165.15;;;;;;;16.81;61.25;99379.22;4867818;29;20081;-60
2023/01/10 09:59:41;;;;;;;381.65;162.43;;;;;;;17.06;61.17;99374.72;4864300;29;20827;-62
2023/01/10 10:02:47;;;;;;;374.67;160.45;;;;;;;17.24;61.04;99371.28;4847161;29;20373;-61
2023/01/10 10:05:27;;;;;;;370.80;164.38;;;;;;;17.15;61.05;99376.09;4865390;29;20065;-61
2023/01/10 10:08:19;;;;;;;401.75;171.27;;;;;;;17.01;60.58;99367.34;4868346;29;20056;-61
2023/01/10 10:11:06;;;;;;;386.85;172.40;;;;;;;17.03;60.77;99357.25;4864303;29;20373;-62
2023/01/10 10:14:34;;;;;;;386.10;166.32;;;;;;;16.81;62.81;99361.31;4868845;29;20042;-62
2023/01/10 10:17:51;;;;;;;383.45;164.93;;;;;;;16.82;61.73;99349.56;4848685;29;20057;-63
2023/01/10 10:20:56;;;;;;;390.95;165.95;;;;;;;16.87;61.78;99341.72;4868096;29;20056;-62
2023/01/10 10:24:03;;;;;;;388.45;164.10;;;;;;;16.64;62.09;99344.13;4864358;29;20055;-62
2023/01/10 10:27:07;;;;;;;402.75;166.80;;;;;;;16.64;62.24;99335.31;4865725;29;20059;-62
2023/01/10 10:30:15;;;;;;;397.02;172.77;;;;;;;16.78;61.84;99337.66;4864002;29;20109;-63
2023/01/10 10:33:09;;;;;;;374.48;161.55;;;;;;;16.74;62.24;99335.63;4868428;29;20067;-62
2023/01/10 10:36:10;;;;;;;404.33;168.93;;;;;;;16.65;63.04;99327.06;4886316;29;20079;-62
2023/01/10 10:38:54;;;;;;;398.85;171.65;;;;;;;16.57;63.57;99319.25;4882748;29;20473;-62
2023/01/10 10:42:00;;;;;;;407.92;175.45;;;;;;;16.54;63.53;99317.03;4872109;29;20142;-62
2023/01/10 10:44:54;;;;;;;409.25;176.00;;;;;;;16.47;63.58;99314.38;4871673;29;20052;-62
2023/01/10 10:47:48;;;;;;;;;;;;;;;16.44;63.42;99309.47;4875309;29;20068;-62
2023/01/10 10:50:58;;;;;;;404.35;165.13;;;;;;;16.37;64.35;99307.88;4871647;29;19952;-62
2023/01/10 10:53:34;;;;;;;402.40;167.93;;;;;;;16.49;63.57;99309.66;4871718;29;20497;-60
2023/01/10 10:56:25;;;;;;;411.85;170.80;;;;;;;16.37;64.17;99300.69;4872097;29;20057;-60
2023/01/10 10:59:07;;;;;;;403.13;169.98;;;;;;;16.15;64.58;99286.81;4879562;29;20139;-61
2023/01/10 11:01:56;;;;;;;393.55;172.55;;;;;;;16.01;65.72;99290.59;4890297;29;20116;-63
2023/01/10 11:04:38;;;;;;;403.63;176.57;;;;;;;15.92;66.34;99299.06;4873647;29;20044;-62
2023/01/10 11:07:33;;;;;;;397.88;172.07;;;;;;;15.81;67.21;99297.03;4889201;29;20068;-62
2023/01/10 11:10:34;;;;;;;403.95;174.10;;;;;;;15.72;66.95;99301.78;4885340;29;20087;-63
2023/01/10 11:13:32;;;;;;;404.77;175.20;;;;;;;15.62;68.14;99298.78;4871984;29;20049;-61
2023/01/10 11:16:28;;;;;;;419.00;173.60;;;;;;;15.55;68.24;99292.63;4853009;29;20073;-62
2023/01/10 11:19:29;;;;;;;426.98;176.35;;;;;;;15.45;69.10;99277.00;4869378;29;20109;-64
2023/01/10 11:22:07;;;;;;;400.15;174.43;;;;;;;15.43;69.53;99281.75;4871610;29;20081;-63
2023/01/10 11:25:07;;;;;;;403.63;169.85;;;;;;;15.35;69.90;99283.81;4853375;29;20533;-64
2023/01/10 11:27:57;;;;;;;441.00;181.13;;;;;;;15.27;70.54;99291.00;4864984;29;20051;-62
2023/01/10 11:30:46;;;;;;;406.27;176.52;;;;;;;15.17;70.85;99290.63;4887388;29;20759;-63
2023/01/10 11:33:34;;;;;;;399.30;175.10;;;;;;;15.17;70.86;99292.47;4870623;29;20585;-63
2023/01/10 11:36:24;;;;;;;422.95;178.43;;;;;;;15.10;70.72;99292.47;4870685;29;20148;-60
2023/01/10 11:39:06;;;;;;;433.52;179.48;;;;;;;15.09;71.31;99290.03;4880722;29;20052;-62
2023/01/10 11:41:57;;;;;;;405.38;172.07;;;;;;;15.03;71.39;99286.31;4878870;29;20053;-61
2023/01/10 11:44:53;;;;;;;417.80;175.70;;;;;;;14.96;71.53;99282.81;4877231;29;20644;-61
2023/01/10 11:47:29;;;;;;;406.10;172.48;;;;;;;14.97;71.49;99280.97;4871054;29;20052;-63
2023/01/10 11:50:36;;;;;;;408.73;173.13;;;;;;;14.87;72.02;99265.38;4855471;29;20056;-61
2023/01/10 11:53:34;;;;;;;421.57;172.07;;;;;;;14.92;71.78;99270.09;4888732;29;20070;-63
2023/01/10 11:56:27;;;;;;;404.25;171.90;;;;;;;14.72;72.35;99273.63;4874084;29;20068;-60
2023/01/10 11:59:24;;;;;;;415.08;175.50;;;;;;;14.58;72.09;99271.13;4878397;29;20053;-59
2023/01/10 12:02:14;;;;;;;426.40;178.95;;;;;;;14.33;73.09;99282.38;4873388;29;20053;-60
2023/01/10 12:05:07;;;;;;;417.25;174.27;;;;;;;14.25;73.25;99282.53;4882194;29;20044;-58
2023/01/10 12:08:05;;;;;;;413.55;172.20;;;;;;;14.15;74.06;99295.44;4893236;29;20090;-59
2023/01/10 12:11:23;;;;;;;399.85;169.32;;;;;;;14.02;74.65;99292.72;4890554;29;20056;-65
2023/01/10 12:14:19;;;;;;;410.60;169.65;;;;;;;13.97;74.62;99292.50;4860477;29;20052;-61
2023/01/10 12:17:09;;;;;;;412.40;174.50;;;;;;;13.71;75.16;99285.25;4873355;29;20453;-61
2023/01/10 12:19:55;;;;;;;394.75;167.07;;;;;;;13.77;76.30;99284.44;4871514;29;20079;-60
2023/01/10 12:22:57;;;;;;;416.50;171.68;;;;;;;13.88;75.55;99291.03;4869865;29;20120;-63
2023/01/10 12:25:50;;;;;;;406.27;172.77;;;;;;;13.47;76.34;99291.88;4875838;29;20548;-61
2023/01/10 12:28:56;;;;;;;414.83;177.25;;;;;;;13.60;76.18;99291.13;4840100;29;20046;-62
2023/01/10 12:31:40;;;;;;;406.52;169.48;;;;;;;13.52;75.95;99291.28;4834809;29;20137;-60
2023/01/10 12:34:41;;;;;;;406.73;172.38;;;;;;;13.46;76.55;99300.88;4840621;29;20058;-60
2023/01/10 12:37:42;;;;;;;406.00;173.40;;;;;;;13.32;76.66;99298.34;4836530;29;20122;-60
2023/01/10 12:40:55;;;;;;;394.15;167.45;;;;;;;13.32;76.34;99301.00;4835681;29;20061;-60
2023/01/10 12:47:00;;;;;;;393.88;161.40;;;;;;;13.28;76.87;99305.03;4846069;29;20061;-59
2023/01/10 12:50:12;;;;;;;386.52;156.15;;;;;;;13.25;76.66;99305.44;4832781;29;20054;-60
2023/01/10 12:53:25;;;;;;;361.63;151.30;;;;;;;13.27;76.93;99303.41;4826506;29;20060;-59
2023/01/10 12:56:06;;;;;;;375.50;153.60;;;;;;;13.26;76.53;99301.78;4839490;29;20161;-59
2023/01/10 12:59:09;;;;;;;356.88;149.70;;;;;;;13.44;76.19;99304.75;4844163;29;20050;-59
2023/01/10 13:01:53;;;;;;;334.75;147.00;;;;;;;13.49;75.92;99313.78;4835707;29;20053;-60
2023/01/10 13:04:54;;;;;;;333.13;140.80;;;;;;;13.09;76.46;99325.16;4829441;29;20154;-59
2023/01/10 13:07:34;;;;;;;350.65;144.90;;;;;;;13.10;76.97;99320.66;4836350;29;20050;-61
2023/01/10 13:10:32;;;;;;;325.17;139.68;;;;;;;13.14;77.42;99333.41;4816610;29;20058;-59